createdAt,value
2019-01-14T00:03:19.462Z,10.90
2019-01-14T00:05:46.667Z,16.63
2019-01-14T00:08:13.878Z,17.97
2019-01-14T00:10:41.119Z,23.63
2019-01-14T00:13:08.330Z,16.93
2019-01-14T00:15:35.539Z,17.40
2019-01-14T00:18:02.777Z,21.10
2019-01-14T00:20:30.023Z,16.17
2019-01-14T00:22:57.217Z,9.60
2019-01-14T00:25:24.831Z,12.83
2019-01-14T00:27:52.066Z,11.00
2019-01-14T00:30:19.265Z,14.23
2019-01-14T00:32:46.878Z,8.27
2019-01-14T00:35:14.094Z,15.77
2019-01-14T00:37:41.353Z,14.13
2019-01-14T00:43:15.958Z,17.67
2019-01-14T00:45:43.195Z,21.07
2019-01-14T00:48:10.432Z,18.17
2019-01-14T00:50:37.985Z,17.33
2019-01-14T00:53:05.298Z,19.53
2019-01-14T00:55:32.517Z,24.80
2019-01-14T00:57:59.739Z,7.13
2019-01-14T01:00:27.013Z,2.93
2019-01-14T01:02:54.241Z,3.60
2019-01-14T01:05:21.798Z,3.40
2019-01-14T01:10:56.651Z,4.90
2019-01-14T01:13:23.858Z,3.23
2019-01-14T01:15:51.096Z,3.23
2019-01-14T01:18:18.306Z,8.03
2019-01-14T01:23:23.925Z,3.57
2019-01-14T01:25:51.133Z,1.40
2019-01-14T01:28:18.346Z,8.23
2019-01-14T01:30:45.841Z,10.80
2019-01-14T01:33:13.039Z,17.23
2019-01-14T01:35:40.527Z,16.20
2019-01-14T01:38:08.090Z,17.57
2019-01-14T01:40:35.298Z,18.63
2019-01-14T01:43:02.506Z,15.13
2019-01-14T01:45:29.724Z,22.93
2019-01-14T01:47:57.199Z,13.20
2019-01-14T01:50:24.434Z,17.27
2019-01-14T01:52:51.907Z,20.37
2019-01-14T01:55:19.464Z,18.63
2019-01-14T01:57:46.690Z,17.33
2019-01-14T02:00:34.746Z,12.20
2019-01-14T02:03:01.954Z,11.83
2019-01-14T02:05:29.202Z,12.47
2019-01-14T02:07:56.474Z,13.27
2019-01-14T02:10:24.062Z,23.03
2019-01-14T02:15:58.534Z,23.17
2019-01-14T02:18:25.781Z,17.40
2019-01-14T02:20:52.993Z,19.63
2019-01-14T02:23:20.250Z,15.00
2019-01-14T02:25:47.490Z,17.40
2019-01-14T02:28:14.705Z,17.83
2019-01-14T02:30:41.912Z,18.63
2019-01-14T02:33:09.148Z,29.70
2019-01-14T02:35:36.350Z,26.33
2019-01-14T02:38:03.966Z,25.03
2019-01-14T02:40:31.213Z,30.30
2019-01-14T02:42:58.417Z,22.17
2019-01-14T02:45:25.697Z,16.80
2019-01-14T02:47:52.934Z,20.10
2019-01-14T02:50:20.173Z,20.37
2019-01-14T02:52:47.387Z,24.33
2019-01-14T02:55:14.929Z,24.03
2019-01-14T02:57:42.174Z,16.20
2019-01-14T03:03:16.710Z,19.90
2019-01-14T03:05:43.922Z,15.73
2019-01-14T03:08:11.443Z,14.73
2019-01-14T03:10:38.653Z,18.00
2019-01-14T03:13:05.941Z,16.33
2019-01-14T03:15:33.166Z,13.07
2019-01-14T03:18:00.643Z,13.87
2019-01-14T03:20:27.883Z,19.33
2019-01-14T03:22:55.090Z,14.77
2019-01-14T03:25:22.334Z,18.90
2019-01-14T03:27:49.535Z,10.77
2019-01-14T03:33:10.984Z,14.63
2019-01-14T03:35:38.190Z,16.27
2019-01-14T03:38:05.685Z,19.70
2019-01-14T03:40:32.892Z,19.67
2019-01-14T03:43:00.405Z,19.70
2019-01-14T03:45:27.859Z,11.83
2019-01-14T03:47:55.419Z,14.63
2019-01-14T03:50:22.731Z,12.87
2019-01-14T03:55:43.635Z,12.77
2019-01-14T03:58:10.839Z,12.03
2019-01-14T04:00:38.072Z,16.37
2019-01-14T04:03:05.287Z,18.63
2019-01-14T04:05:32.802Z,15.30
2019-01-14T04:08:00.035Z,15.33
2019-01-14T04:10:27.498Z,18.20
2019-01-14T04:12:54.737Z,17.10
2019-01-14T04:15:21.957Z,14.33
2019-01-14T04:17:49.462Z,14.60
2019-01-14T04:23:11.003Z,18.63
2019-01-14T04:25:38.210Z,23.93
2019-01-14T04:28:05.447Z,23.70
2019-01-14T04:30:32.650Z,13.03
2019-01-14T04:32:59.884Z,10.97
2019-01-14T04:35:27.380Z,10.13
2019-01-14T04:37:54.915Z,8.37
2019-01-14T04:40:22.216Z,10.60
2019-01-14T04:42:49.723Z,11.97
2019-01-14T04:45:16.957Z,14.30
2019-01-14T04:47:44.253Z,7.23
2019-01-14T04:53:18.730Z,7.37
2019-01-14T04:55:45.934Z,10.03
2019-01-14T04:58:13.161Z,6.97
2019-01-14T05:00:40.622Z,11.03
2019-01-14T05:03:07.953Z,9.30
2019-01-14T05:05:35.145Z,4.90
2019-01-14T05:08:02.351Z,9.17
2019-01-14T05:10:29.577Z,4.07
2019-01-14T05:12:57.090Z,7.87
2019-01-14T05:15:24.318Z,7.60
2019-01-14T05:17:51.543Z,5.13
2019-01-14T05:23:26.389Z,4.43
2019-01-14T05:25:53.639Z,4.33
2019-01-14T05:28:20.865Z,6.77
2019-01-14T05:30:49.525Z,5.53
2019-01-14T05:33:17.187Z,11.77
2019-01-14T05:35:44.429Z,7.03
2019-01-14T05:38:11.658Z,7.40
2019-01-14T05:40:39.143Z,6.53
2019-01-14T05:43:06.367Z,8.10
2019-01-14T05:45:33.594Z,5.23
2019-01-14T05:48:00.909Z,4.37
2019-01-14T05:50:28.114Z,8.30
2019-01-14T05:52:55.605Z,4.00
2019-01-14T05:55:22.827Z,5.63
2019-01-14T05:57:50.026Z,9.30
2019-01-14T06:03:11.435Z,4.23
2019-01-14T06:05:38.633Z,8.33
2019-01-14T06:08:05.853Z,4.43
2019-01-14T06:10:33.395Z,6.50
2019-01-14T06:13:00.608Z,11.43
2019-01-14T06:15:27.815Z,6.63
2019-01-14T06:17:55.037Z,8.07
2019-01-14T06:23:10.347Z,10.47
2019-01-14T06:25:37.562Z,10.50
2019-01-14T06:28:04.798Z,11.87
2019-01-14T06:30:32.299Z,10.20
2019-01-14T06:32:59.508Z,5.37
2019-01-14T06:35:26.741Z,11.77
2019-01-14T06:37:53.974Z,15.13
2019-01-14T06:43:14.930Z,14.90
2019-01-14T06:45:42.144Z,18.10
2019-01-14T06:48:09.370Z,16.23
2019-01-14T06:50:36.829Z,11.97
2019-01-14T06:53:04.138Z,16.70
2019-01-14T06:55:31.644Z,12.73
2019-01-14T06:57:59.198Z,16.90
2019-01-14T07:03:33.672Z,17.17
2019-01-14T07:06:00.954Z,12.57
2019-01-14T07:08:28.179Z,15.43
2019-01-14T07:13:30.061Z,11.13
2019-01-14T07:15:57.293Z,8.67
2019-01-14T07:18:24.533Z,12.43
2019-01-14T07:20:51.750Z,10.93
2019-01-14T07:23:18.965Z,13.57
2019-01-14T07:25:46.196Z,11.27
2019-01-14T07:28:13.733Z,11.70
2019-01-14T07:30:40.969Z,12.93
2019-01-14T07:33:08.434Z,9.63
2019-01-14T07:35:35.644Z,10.07
2019-01-14T07:38:06.722Z,14.87
2019-01-14T07:40:31.810Z,15.23
2019-01-14T07:42:59.382Z,14.13
2019-01-14T07:45:26.845Z,11.37
2019-01-14T07:47:54.065Z,14.33
2019-01-14T07:50:21.285Z,11.43
2019-01-14T07:52:48.518Z,12.93
2019-01-14T07:55:16.049Z,13.87
2019-01-14T07:57:43.286Z,10.33
2019-01-14T08:03:04.734Z,10.57
2019-01-14T08:05:31.942Z,12.30
2019-01-14T08:07:59.162Z,5.80
2019-01-14T08:10:26.705Z,11.73
2019-01-14T08:12:53.925Z,11.33
2019-01-14T08:15:21.206Z,12.30
2019-01-14T08:17:48.761Z,13.07
2019-01-14T08:20:16.063Z,10.67
2019-01-14T08:25:37.527Z,7.50
2019-01-14T08:28:06.249Z,9.23
2019-01-14T08:30:33.483Z,8.03
2019-01-14T08:33:00.722Z,12.23
2019-01-14T08:35:27.948Z,9.60
2019-01-14T08:37:55.442Z,8.10
2019-01-14T08:40:22.672Z,4.37
2019-01-14T08:42:49.905Z,5.93
2019-01-14T08:45:17.123Z,4.67
2019-01-14T08:47:44.645Z,3.40
2019-01-14T08:53:05.306Z,6.73
2019-01-14T08:55:32.510Z,6.00
2019-01-14T08:57:59.746Z,7.77
2019-01-14T09:00:26.946Z,7.00
2019-01-14T09:02:54.474Z,7.47
2019-01-14T09:05:22.034Z,3.80
2019-01-14T09:07:49.241Z,3.53
2019-01-14T09:10:35.818Z,3.43
2019-01-14T09:13:03.017Z,9.67
2019-01-14T09:15:30.241Z,4.17
2019-01-14T09:18:02.703Z,3.93
2019-01-14T09:20:26.744Z,3.47
2019-01-14T09:22:54.040Z,5.77
2019-01-14T09:25:21.248Z,2.83
2019-01-14T09:27:48.462Z,2.40
2019-01-14T09:33:09.435Z,1.30
2019-01-14T09:35:36.633Z,1.20
2019-01-14T09:40:58.053Z,8.93
2019-01-14T09:43:25.257Z,6.37
2019-01-14T09:45:52.485Z,4.50
2019-01-14T09:48:19.954Z,4.17
2019-01-14T09:50:47.158Z,4.73
2019-01-14T09:53:14.390Z,4.07
2019-01-14T09:55:41.603Z,2.90
2019-01-14T09:58:08.805Z,5.80
2019-01-14T10:00:36.314Z,8.77
2019-01-14T10:03:03.875Z,6.73
2019-01-14T10:05:31.101Z,7.37
2019-01-14T10:07:58.580Z,5.50
2019-01-14T10:10:25.811Z,5.77
2019-01-14T10:12:53.041Z,7.27
2019-01-14T10:18:27.529Z,12.00
2019-01-14T10:20:55.082Z,8.20
2019-01-14T10:23:22.294Z,11.93
2019-01-14T10:25:49.570Z,10.20
2019-01-14T10:28:17.137Z,12.33
2019-01-14T10:30:44.789Z,9.40
2019-01-14T10:33:13.550Z,8.40
2019-01-14T10:35:40.749Z,7.37
2019-01-14T10:38:07.969Z,7.80
2019-01-14T10:40:35.174Z,9.33
2019-01-14T10:43:02.471Z,12.53
2019-01-14T10:45:29.704Z,10.50
2019-01-14T10:47:56.914Z,8.90
2019-01-14T10:50:24.150Z,6.13
2019-01-14T10:52:51.602Z,9.10
2019-01-14T10:55:18.833Z,9.60
2019-01-14T10:57:46.066Z,13.00
2019-01-14T11:00:32.614Z,9.43
2019-01-14T11:02:59.919Z,4.33
2019-01-14T11:08:21.006Z,10.93
2019-01-14T11:10:48.214Z,8.47
2019-01-14T11:13:15.441Z,6.40
2019-01-14T11:15:42.945Z,7.57
2019-01-14T11:18:10.502Z,10.17
2019-01-14T11:20:37.712Z,8.80
2019-01-14T11:23:04.943Z,13.17
2019-01-14T11:25:32.179Z,8.33
2019-01-14T11:27:59.710Z,8.50
2019-01-14T11:33:20.332Z,7.10
2019-01-14T11:35:47.882Z,12.63
2019-01-14T11:38:34.457Z,9.40
2019-01-14T11:41:01.946Z,7.53
2019-01-14T11:43:29.174Z,13.10
2019-01-14T11:45:56.406Z,3.57
2019-01-14T11:48:23.614Z,2.87
2019-01-14T11:50:51.154Z,5.57
2019-01-14T11:53:18.615Z,3.70
2019-01-14T11:55:45.858Z,8.73
2019-01-14T11:58:13.323Z,2.53
2019-01-14T12:00:40.779Z,5.80
2019-01-14T12:03:08.713Z,2.53
2019-01-14T12:05:37.222Z,3.37
2019-01-14T12:08:04.783Z,5.90
2019-01-14T12:10:32.015Z,7.43
2019-01-14T12:12:59.249Z,6.97
2019-01-14T12:18:33.727Z,3.53
2019-01-14T12:21:01.281Z,3.03
2019-01-14T12:23:28.746Z,5.93
2019-01-14T12:25:55.965Z,3.93
2019-01-14T12:28:23.166Z,5.17
2019-01-14T12:30:50.405Z,8.57
2019-01-14T12:33:17.613Z,6.03
2019-01-14T12:35:44.809Z,2.97
2019-01-14T12:38:12.048Z,6.13
2019-01-14T12:40:39.245Z,2.37
2019-01-14T12:43:06.458Z,4.33
2019-01-14T12:48:27.274Z,4.07
2019-01-14T12:50:54.484Z,6.10
2019-01-14T12:53:21.733Z,10.80
2019-01-14T12:55:48.946Z,4.60
2019-01-14T12:58:16.146Z,5.57
2019-01-14T13:00:43.378Z,5.00
2019-01-14T13:03:10.605Z,4.50
2019-01-14T13:05:38.226Z,4.27
2019-01-14T13:08:05.787Z,9.43
2019-01-14T13:10:32.989Z,5.80
2019-01-14T13:13:00.196Z,3.33
2019-01-14T13:18:21.822Z,9.73
2019-01-14T13:20:49.026Z,2.67
2019-01-14T13:23:16.235Z,8.83
2019-01-14T13:25:43.459Z,3.80
2019-01-14T13:28:10.666Z,5.20
2019-01-14T13:30:37.895Z,5.27
2019-01-14T13:33:05.161Z,2.63
2019-01-14T13:35:32.742Z,2.10
2019-01-14T13:38:00.346Z,3.47
2019-01-14T13:40:27.567Z,10.50
2019-01-14T13:42:55.054Z,9.73
2019-01-14T13:48:15.653Z,3.13
2019-01-14T13:50:43.122Z,4.87
2019-01-14T13:53:10.349Z,7.53
2019-01-14T13:55:37.830Z,7.27
2019-01-14T13:58:05.054Z,3.97
2019-01-14T14:00:32.539Z,0.70
2019-01-14T14:02:59.762Z,2.47
2019-01-14T14:05:26.976Z,1.43
2019-01-14T14:07:54.209Z,0.97
2019-01-14T14:13:15.486Z,3.23
2019-01-14T14:15:42.987Z,2.83
2019-01-14T14:18:10.198Z,8.47
2019-01-14T14:20:37.690Z,26.67
2019-01-14T14:23:11.705Z,5.80
2019-01-14T14:25:38.908Z,8.63
2019-01-14T14:28:06.114Z,6.73
2019-01-14T14:33:26.922Z,2.53
2019-01-14T14:35:54.143Z,5.13
2019-01-14T14:38:21.622Z,5.17
2019-01-14T14:40:49.178Z,4.77
2019-01-14T14:43:16.410Z,10.90
2019-01-14T14:45:43.891Z,4.20
2019-01-14T14:48:11.446Z,4.33
2019-01-14T14:50:39.006Z,4.47
2019-01-14T14:53:06.211Z,4.00
2019-01-14T14:55:33.438Z,4.77
2019-01-14T14:58:00.649Z,5.67
2019-01-14T15:00:27.903Z,5.60
2019-01-14T15:02:55.123Z,2.83
2019-01-14T15:05:22.619Z,4.10
2019-01-14T15:07:49.850Z,4.23
2019-01-14T15:13:11.342Z,4.37
2019-01-14T15:15:38.866Z,2.73
2019-01-14T15:18:06.149Z,7.80
2019-01-14T15:20:33.366Z,3.50
2019-01-14T15:23:00.606Z,3.47
2019-01-14T15:25:27.815Z,2.40
2019-01-14T15:27:55.017Z,3.40
2019-01-14T15:33:16.755Z,5.00
2019-01-14T15:35:43.958Z,4.93
2019-01-14T15:38:11.186Z,5.53
2019-01-14T15:40:38.439Z,1.73
2019-01-14T15:43:05.670Z,3.67
2019-01-14T15:45:33.217Z,5.57
2019-01-14T15:48:00.450Z,8.07
2019-01-14T15:50:27.669Z,4.30
2019-01-14T15:52:54.898Z,5.03
2019-01-14T15:58:29.378Z,7.43
2019-01-14T16:00:56.584Z,1.97
2019-01-14T16:03:23.798Z,5.70
2019-01-14T16:05:51.033Z,3.80
2019-01-14T16:10:51.398Z,1.73
2019-01-14T16:13:18.958Z,6.80
2019-01-14T16:15:46.173Z,4.73
2019-01-14T16:18:13.406Z,2.80
2019-01-14T16:20:40.919Z,3.63
2019-01-14T16:23:08.125Z,10.23
2019-01-14T16:25:35.354Z,19.03
2019-01-14T16:28:02.560Z,11.93
2019-01-14T16:30:29.789Z,0.90
2019-01-14T16:32:56.998Z,11.00
2019-01-14T16:35:24.198Z,2.53
2019-01-14T16:37:51.682Z,3.67
2019-01-14T16:40:18.902Z,3.27
2019-01-14T16:42:46.106Z,5.03
2019-01-14T16:45:34.391Z,2.97
2019-01-14T16:48:01.598Z,4.17
2019-01-14T16:50:28.831Z,7.27
2019-01-14T16:52:56.285Z,5.67
2019-01-14T16:57:58.258Z,6.23
2019-01-14T17:00:25.481Z,7.67
2019-01-14T17:02:52.710Z,7.00
2019-01-14T17:05:20.220Z,3.80
2019-01-14T17:07:47.446Z,3.87
2019-01-14T17:13:21.919Z,5.33
2019-01-14T17:15:49.462Z,4.20
2019-01-14T17:18:16.668Z,5.17
2019-01-14T17:20:43.965Z,5.43
2019-01-14T17:23:11.165Z,2.73
2019-01-14T17:25:38.674Z,2.73
2019-01-14T17:28:05.905Z,5.13
2019-01-14T17:30:33.110Z,2.87
2019-01-14T17:33:00.314Z,6.17
2019-01-14T17:35:27.539Z,4.10
2019-01-14T17:37:54.757Z,8.23
2019-01-14T17:40:21.982Z,3.70
2019-01-14T17:42:49.436Z,3.93
2019-01-14T17:45:16.657Z,5.23
2019-01-14T17:47:43.888Z,7.50
2019-01-14T17:53:18.445Z,7.40
2019-01-14T17:55:45.645Z,6.83
2019-01-14T17:58:13.181Z,6.23
2019-01-14T18:03:34.292Z,5.53
2019-01-14T18:06:01.517Z,3.43
2019-01-14T18:08:29.018Z,6.00
2019-01-14T18:11:01.625Z,6.93
2019-01-14T18:13:25.171Z,11.27
2019-01-14T18:15:52.402Z,6.93
2019-01-14T18:18:19.614Z,11.80
2019-01-14T18:20:46.835Z,9.77
2019-01-14T18:23:14.374Z,5.90
2019-01-14T18:25:43.262Z,10.27
2019-01-14T18:28:10.818Z,8.37
2019-01-14T18:30:38.054Z,8.47
2019-01-14T18:33:05.260Z,9.83
2019-01-14T18:35:32.466Z,6.07
2019-01-14T18:37:59.710Z,8.47
2019-01-14T18:40:33.506Z,5.83
2019-01-14T18:42:55.874Z,4.60
2019-01-14T18:45:23.126Z,7.70
2019-01-14T18:47:50.675Z,8.10
2019-01-14T18:53:11.331Z,10.87
2019-01-14T18:55:38.538Z,14.90
2019-01-14T18:58:05.760Z,6.47
2019-01-14T19:00:32.982Z,9.67
2019-01-14T19:03:00.186Z,5.77
2019-01-14T19:05:27.409Z,5.13
2019-01-14T19:08:13.970Z,7.27
2019-01-14T19:10:41.177Z,8.87
2019-01-14T19:13:08.390Z,7.73
2019-01-14T19:15:35.614Z,5.70
2019-01-14T19:18:03.155Z,6.70
2019-01-14T19:20:30.353Z,2.80
2019-01-14T19:22:57.650Z,4.47
2019-01-14T19:25:24.878Z,7.97
2019-01-14T19:27:52.097Z,5.00
2019-01-14T19:33:13.594Z,7.90
2019-01-14T19:35:40.822Z,6.77
2019-01-14T19:38:08.030Z,10.00
2019-01-14T19:40:35.258Z,6.23
2019-01-14T19:43:02.479Z,2.90
2019-01-14T19:45:29.694Z,2.93
2019-01-14T19:47:56.974Z,4.40
2019-01-14T19:50:24.280Z,5.30
2019-01-14T19:52:51.487Z,7.77
2019-01-14T19:55:18.694Z,3.33
2019-01-14T19:57:46.212Z,6.27
2019-01-14T20:03:21.058Z,7.53
2019-01-14T20:05:48.262Z,7.27
2019-01-14T20:10:49.986Z,7.30
2019-01-14T20:13:17.186Z,8.43
2019-01-14T20:15:44.687Z,10.40
2019-01-14T20:18:11.894Z,12.63
2019-01-14T20:20:39.112Z,7.83
2019-01-14T20:23:06.317Z,6.90
2019-01-14T20:25:33.549Z,7.60
2019-01-14T20:28:01.046Z,9.83
2019-01-14T20:30:28.510Z,11.07
2019-01-14T20:32:55.748Z,12.63
2019-01-14T20:35:22.942Z,7.73
2019-01-14T20:37:50.173Z,9.87
2019-01-14T20:40:17.427Z,5.97
2019-01-14T20:42:44.717Z,6.53
2019-01-14T20:48:19.206Z,11.40
2019-01-14T20:50:46.425Z,4.80
2019-01-14T20:53:14.007Z,6.60
2019-01-14T20:55:42.586Z,7.40
2019-01-14T20:58:10.058Z,10.17
2019-01-14T21:00:37.274Z,5.93
2019-01-14T21:03:04.498Z,6.73
2019-01-14T21:08:26.291Z,7.40
2019-01-14T21:10:53.535Z,3.70
2019-01-14T21:13:20.738Z,9.37
2019-01-14T21:15:48.250Z,7.20
2019-01-14T21:18:15.917Z,8.17
2019-01-14T21:20:43.121Z,9.63
2019-01-14T21:23:10.402Z,5.80
2019-01-14T21:25:37.630Z,4.43
2019-01-14T21:28:04.838Z,8.73
2019-01-14T21:30:32.473Z,10.17
2019-01-14T21:32:59.683Z,8.07
2019-01-14T21:35:26.886Z,5.97
2019-01-14T21:37:54.181Z,7.83
2019-01-14T21:40:21.690Z,11.63
2019-01-14T21:42:48.919Z,9.07
2019-01-14T21:45:16.390Z,9.33
2019-01-14T21:47:43.665Z,11.20
2019-01-14T21:50:30.253Z,5.50
2019-01-14T21:52:57.475Z,8.40
2019-01-14T21:55:24.679Z,9.40
2019-01-14T21:57:51.901Z,12.13
2019-01-14T22:03:26.374Z,6.00
2019-01-14T22:05:53.599Z,9.63
2019-01-14T22:08:20.802Z,8.47
2019-01-14T22:10:48.162Z,8.23
2019-01-14T22:13:15.414Z,5.23
2019-01-14T22:15:42.658Z,6.37
2019-01-14T22:18:09.868Z,10.43
2019-01-14T22:20:37.074Z,7.53
2019-01-14T22:23:04.306Z,10.27
2019-01-14T22:25:31.534Z,8.27
2019-01-14T22:27:58.769Z,11.20
2019-01-14T22:33:33.494Z,7.47
2019-01-14T22:36:00.754Z,8.73
2019-01-14T22:38:27.985Z,10.73
2019-01-14T22:40:55.194Z,11.17
2019-01-14T22:43:22.417Z,10.70
2019-01-14T22:45:49.650Z,11.17
2019-01-14T22:48:17.212Z,14.43
2019-01-14T22:50:44.413Z,10.17
2019-01-14T22:53:11.914Z,11.53
2019-01-14T22:55:39.146Z,9.87
2019-01-14T22:58:06.627Z,18.03
2019-01-14T23:03:27.963Z,13.80
2019-01-14T23:05:55.169Z,8.83
2019-01-14T23:08:22.399Z,10.97
2019-01-14T23:10:50.846Z,13.87
2019-01-14T23:13:18.594Z,15.07
2019-01-14T23:15:45.798Z,9.57
2019-01-14T23:18:13.009Z,14.40
2019-01-14T23:20:40.563Z,14.53
2019-01-14T23:23:08.114Z,12.70
2019-01-14T23:25:35.322Z,14.73
2019-01-14T23:28:02.822Z,10.90
2019-01-14T23:30:30.061Z,14.03
2019-01-14T23:32:57.534Z,7.53
2019-01-14T23:35:24.775Z,13.20
2019-01-14T23:37:52.014Z,15.07
2019-01-14T23:40:19.222Z,11.70
2019-01-14T23:45:34.587Z,11.67
2019-01-14T23:48:01.828Z,8.07
2019-01-14T23:50:29.029Z,12.07
2019-01-14T23:52:56.530Z,12.53
2019-01-14T23:55:23.758Z,11.40
2019-01-14T23:57:50.970Z,13.27
